createdAt,value
2022-12-07T00:01:07.000Z,5.5
2022-12-07T00:02:24.000Z,5.5
2022-12-07T00:03:40.000Z,5.5
2022-12-07T00:04:56.000Z,5.5
2022-12-07T00:06:12.000Z,5.5
2022-12-07T00:07:28.000Z,5.5
2022-12-07T00:08:44.000Z,5.5
2022-12-07T00:10:00.000Z,5.5
2022-12-07T00:11:16.000Z,5.5
2022-12-07T00:12:33.000Z,5.5
2022-12-07T00:13:49.000Z,5.5
2022-12-07T00:15:05.000Z,5.5
2022-12-07T00:16:21.000Z,5.5
2022-12-07T00:17:37.000Z,5.5
2022-12-07T00:18:54.000Z,5.4
2022-12-07T00:20:10.000Z,5.4
2022-12-07T00:21:26.000Z,5.4
2022-12-07T00:22:42.000Z,5.4
2022-12-07T00:23:58.000Z,5.4
2022-12-07T00:25:14.000Z,5.4
2022-12-07T00:26:30.000Z,5.4
2022-12-07T00:27:46.000Z,5.4
2022-12-07T00:29:03.000Z,5.4
2022-12-07T00:30:19.000Z,5.3
2022-12-07T00:31:35.000Z,5.3
2022-12-07T00:32:51.000Z,5.3
2022-12-07T00:34:08.000Z,5.3
2022-12-07T00:35:24.000Z,5.3
2022-12-07T00:36:40.000Z,5.3
2022-12-07T00:37:56.000Z,5.3
2022-12-07T00:39:12.000Z,5.2
2022-12-07T00:40:28.000Z,5.2
2022-12-07T00:41:44.000Z,5.2
2022-12-07T00:43:00.000Z,5.2
2022-12-07T00:44:16.000Z,5.2
2022-12-07T00:45:33.000Z,5.2
2022-12-07T00:46:49.000Z,5.1
2022-12-07T00:48:05.000Z,5.1
2022-12-07T00:49:21.000Z,5.1
2022-12-07T00:50:38.000Z,5.1
2022-12-07T00:51:54.000Z,5.1
2022-12-07T00:53:10.000Z,5.1
2022-12-07T00:54:26.000Z,5.1
2022-12-07T00:55:43.000Z,5.1
2022-12-07T00:56:58.000Z,5
2022-12-07T00:58:14.000Z,5
2022-12-07T00:59:30.000Z,5
2022-12-07T01:00:46.000Z,5
2022-12-07T01:02:03.000Z,5
2022-12-07T01:03:19.000Z,5
2022-12-07T01:04:35.000Z,5
2022-12-07T01:05:51.000Z,5
2022-12-07T01:07:08.000Z,5
2022-12-07T01:08:24.000Z,5
2022-12-07T01:09:40.000Z,5
2022-12-07T01:10:56.000Z,5
2022-12-07T01:13:29.000Z,4.9
2022-12-07T01:14:44.000Z,4.9
2022-12-07T01:16:00.000Z,4.9
2022-12-07T01:17:17.000Z,4.9
2022-12-07T01:18:33.000Z,4.9
2022-12-07T01:19:49.000Z,4.8
2022-12-07T01:21:05.000Z,4.8
2022-12-07T01:22:21.000Z,4.8
2022-12-07T01:23:38.000Z,4.7
2022-12-07T01:24:54.000Z,4.7
2022-12-07T01:26:10.000Z,4.7
2022-12-07T01:27:26.000Z,4.6
2022-12-07T01:28:43.000Z,4.6
2022-12-07T01:29:59.000Z,4.6
2022-12-07T01:31:14.000Z,4.6
2022-12-07T01:32:30.000Z,4.6
2022-12-07T01:33:47.000Z,4.6
2022-12-07T01:35:03.000Z,4.6
2022-12-07T01:36:19.000Z,4.6
2022-12-07T01:37:35.000Z,4.5
2022-12-07T01:38:52.000Z,4.5
2022-12-07T01:40:08.000Z,4.5
2022-12-07T01:41:24.000Z,4.5
2022-12-07T01:42:40.000Z,4.5
2022-12-07T01:43:56.000Z,4.5
2022-12-07T01:45:13.000Z,4.5
2022-12-07T01:46:29.000Z,4.5
2022-12-07T01:47:44.000Z,4.5
2022-12-07T01:49:00.000Z,4.4
2022-12-07T01:50:17.000Z,4.4
2022-12-07T01:51:33.000Z,4.3
2022-12-07T01:52:49.000Z,4.3
2022-12-07T01:54:05.000Z,4.3
2022-12-07T01:55:22.000Z,4.3
2022-12-07T01:56:38.000Z,4.3
2022-12-07T01:57:54.000Z,4.2
2022-12-07T01:59:10.000Z,4.2
2022-12-07T02:00:27.000Z,4.2
2022-12-07T02:01:43.000Z,4.2
2022-12-07T02:02:59.000Z,4.1
2022-12-07T02:04:14.000Z,4.1
2022-12-07T02:05:30.000Z,4.1
2022-12-07T02:06:47.000Z,4.1
2022-12-07T02:08:03.000Z,4.1
2022-12-07T02:09:19.000Z,4
2022-12-07T02:10:35.888Z,4
2022-12-07T02:11:52.000Z,4
2022-12-07T02:13:08.000Z,4
2022-12-07T02:14:24.000Z,4
2022-12-07T02:15:40.000Z,4
2022-12-07T02:16:57.000Z,4
2022-12-07T02:18:13.000Z,4
2022-12-07T02:19:29.000Z,4
2022-12-07T02:20:44.000Z,3.9
2022-12-07T02:22:01.000Z,3.9
2022-12-07T02:23:17.000Z,3.9
2022-12-07T02:24:33.000Z,3.9
2022-12-07T02:25:49.000Z,3.9
2022-12-07T02:27:05.000Z,3.9
2022-12-07T02:28:22.000Z,3.9
2022-12-07T02:29:38.000Z,3.9
2022-12-07T02:30:54.000Z,3.9
2022-12-07T02:32:10.000Z,3.8
2022-12-07T02:33:27.000Z,3.8
2022-12-07T02:34:43.000Z,3.8
2022-12-07T02:35:59.000Z,3.8
2022-12-07T02:37:14.000Z,3.8
2022-12-07T02:38:31.000Z,3.8
2022-12-07T02:39:47.000Z,3.8
2022-12-07T02:41:03.000Z,3.7
2022-12-07T02:42:19.000Z,3.7
2022-12-07T02:43:36.000Z,3.7
2022-12-07T02:44:52.000Z,3.7
2022-12-07T02:46:08.000Z,3.7
2022-12-07T02:47:23.000Z,3.7
2022-12-07T02:48:39.000Z,3.6
2022-12-07T02:49:56.000Z,3.6
2022-12-07T02:52:28.000Z,3.6
2022-12-07T02:53:44.000Z,3.6
2022-12-07T02:55:01.000Z,3.6
2022-12-07T02:56:17.000Z,3.6
2022-12-07T02:57:33.000Z,3.6
2022-12-07T02:58:49.000Z,3.6
2022-12-07T03:00:06.000Z,3.6
2022-12-07T03:01:22.000Z,3.6
2022-12-07T03:02:38.000Z,3.6
2022-12-07T03:03:53.000Z,3.6
2022-12-07T03:05:10.000Z,3.6
2022-12-07T03:06:26.000Z,3.6
2022-12-07T03:07:42.000Z,3.6
2022-12-07T03:08:58.000Z,3.6
2022-12-07T03:10:14.000Z,3.5
2022-12-07T03:11:31.000Z,3.5
2022-12-07T03:12:47.000Z,3.5
2022-12-07T03:14:03.000Z,3.5
2022-12-07T03:15:19.000Z,3.5
2022-12-07T03:16:36.000Z,3.5
2022-12-07T03:17:52.000Z,3.6
2022-12-07T03:19:08.000Z,3.5
2022-12-07T03:20:23.000Z,3.5
2022-12-07T03:21:40.000Z,3.6
2022-12-07T03:22:56.000Z,3.6
2022-12-07T03:24:12.000Z,3.5
2022-12-07T03:25:28.000Z,3.5
2022-12-07T03:26:45.000Z,3.5
2022-12-07T03:28:01.000Z,3.5
2022-12-07T03:29:17.000Z,3.5
2022-12-07T03:30:33.000Z,3.5
2022-12-07T03:31:49.000Z,3.4
2022-12-07T03:33:06.000Z,3.4
2022-12-07T03:34:22.000Z,3.4
2022-12-07T03:35:38.000Z,3.3
2022-12-07T03:36:53.000Z,3.3
2022-12-07T03:38:10.000Z,3.3
2022-12-07T03:39:26.000Z,3.3
2022-12-07T03:40:42.000Z,3.3
2022-12-07T03:41:58.000Z,3.3
2022-12-07T03:43:15.000Z,3.3
2022-12-07T03:44:31.000Z,3.3
2022-12-07T03:45:47.000Z,3.3
2022-12-07T03:47:03.000Z,3.3
2022-12-07T03:48:20.000Z,3.3
2022-12-07T03:49:35.000Z,3.3
2022-12-07T03:50:50.000Z,3.3
2022-12-07T03:52:06.000Z,3.4
2022-12-07T03:53:23.000Z,3.4
2022-12-07T03:54:38.000Z,3.4
2022-12-07T03:55:53.000Z,3.5
2022-12-07T03:57:09.000Z,3.5
2022-12-07T03:58:25.000Z,3.5
2022-12-07T03:59:42.000Z,3.6
2022-12-07T04:00:58.000Z,3.6
2022-12-07T04:02:14.000Z,3.6
2022-12-07T04:03:30.000Z,3.6
2022-12-07T04:04:47.000Z,3.7
2022-12-07T04:06:03.000Z,3.7
2022-12-07T04:07:19.000Z,3.7
2022-12-07T04:08:35.000Z,3.7
2022-12-07T04:09:52.000Z,3.7
2022-12-07T04:11:08.000Z,3.7
2022-12-07T04:12:23.000Z,3.7
2022-12-07T04:13:39.000Z,3.7
2022-12-07T04:14:56.000Z,3.7
2022-12-07T04:16:12.000Z,3.8
2022-12-07T04:17:28.000Z,3.8
2022-12-07T04:18:44.000Z,3.8
2022-12-07T04:20:00.000Z,3.7
2022-12-07T04:21:17.000Z,3.7
2022-12-07T04:22:33.000Z,3.7
2022-12-07T04:23:49.000Z,3.7
2022-12-07T04:25:05.000Z,3.7
2022-12-07T04:26:22.000Z,3.6
2022-12-07T04:27:38.000Z,3.6
2022-12-07T04:28:53.000Z,3.6
2022-12-07T04:30:09.000Z,3.6
2022-12-07T04:31:26.000Z,3.6
2022-12-07T04:32:42.000Z,3.6
2022-12-07T04:33:58.000Z,3.6
2022-12-07T04:35:14.000Z,3.6
2022-12-07T04:36:31.000Z,3.5
2022-12-07T04:37:47.000Z,3.5
2022-12-07T04:39:03.000Z,3.6
2022-12-07T04:40:19.000Z,3.6
2022-12-07T04:41:35.000Z,3.6
2022-12-07T04:42:52.000Z,3.6
2022-12-07T04:44:08.000Z,3.6
2022-12-07T04:45:23.000Z,3.6
2022-12-07T04:46:39.000Z,3.6
2022-12-07T04:47:56.000Z,3.5
2022-12-07T04:49:12.000Z,3.5
2022-12-07T04:50:28.000Z,3.5
2022-12-07T04:51:44.000Z,3.5
2022-12-07T04:53:01.000Z,3.5
2022-12-07T04:54:17.000Z,3.4
2022-12-07T04:55:33.000Z,3.4
2022-12-07T04:56:49.000Z,3.4
2022-12-07T04:58:06.000Z,3.4
2022-12-07T04:59:22.000Z,3.4
2022-12-07T05:00:38.000Z,3.4
2022-12-07T05:01:53.000Z,3.4
2022-12-07T05:03:10.000Z,3.4
2022-12-07T05:04:26.000Z,3.5
2022-12-07T05:05:42.000Z,3.5
2022-12-07T05:06:58.000Z,3.5
2022-12-07T05:08:14.000Z,3.4
2022-12-07T05:09:31.000Z,3.4
2022-12-07T05:10:47.000Z,3.4
2022-12-07T05:12:03.000Z,3.4
2022-12-07T05:13:19.000Z,3.4
2022-12-07T05:14:36.000Z,3.4
2022-12-07T05:15:51.000Z,3.4
2022-12-07T05:17:06.000Z,3.4
2022-12-07T05:18:21.000Z,3.4
2022-12-07T05:19:37.000Z,3.5
2022-12-07T05:20:53.000Z,3.5
2022-12-07T05:22:09.000Z,3.5
2022-12-07T05:23:25.000Z,3.5
2022-12-07T05:24:42.000Z,3.5
2022-12-07T05:25:58.000Z,3.5
2022-12-07T05:27:14.000Z,3.5
2022-12-07T05:28:30.000Z,3.5
2022-12-07T05:29:47.000Z,3.5
2022-12-07T05:31:03.000Z,3.5
2022-12-07T05:32:19.000Z,3.5
2022-12-07T05:33:35.000Z,3.5
2022-12-07T05:34:51.000Z,3.5
2022-12-07T05:36:07.000Z,3.6
2022-12-07T05:37:23.000Z,3.6
2022-12-07T05:38:39.000Z,3.6
2022-12-07T05:39:55.000Z,3.6
2022-12-07T05:41:12.000Z,3.6
2022-12-07T05:42:28.000Z,3.6
2022-12-07T05:43:44.000Z,3.5
2022-12-07T05:45:00.000Z,3.5
2022-12-07T05:46:17.000Z,3.5
2022-12-07T05:47:33.000Z,3.5
2022-12-07T05:48:49.000Z,3.5
2022-12-07T05:50:05.000Z,3.4
2022-12-07T05:51:22.000Z,3.4
2022-12-07T05:52:38.000Z,3.4
2022-12-07T05:55:09.000Z,3.4
2022-12-07T05:56:25.000Z,3.4
2022-12-07T05:57:42.000Z,3.4
2022-12-07T05:58:58.000Z,3.4
2022-12-07T06:00:14.000Z,3.5
2022-12-07T06:01:30.000Z,3.5
2022-12-07T06:02:47.000Z,3.5
2022-12-07T06:04:03.000Z,3.5
2022-12-07T06:05:19.000Z,3.5
2022-12-07T06:06:35.000Z,3.5
2022-12-07T06:07:52.000Z,3.5
2022-12-07T06:09:08.000Z,3.5
2022-12-07T06:10:23.000Z,3.5
2022-12-07T06:11:39.000Z,3.5
2022-12-07T06:12:56.000Z,3.5
2022-12-07T06:14:12.000Z,3.5
2022-12-07T06:15:28.000Z,3.5
2022-12-07T06:16:44.000Z,3.5
2022-12-07T06:18:00.000Z,3.5
2022-12-07T06:19:17.000Z,3.5
2022-12-07T06:20:33.000Z,3.5
2022-12-07T06:21:49.000Z,3.5
2022-12-07T06:23:05.000Z,3.5
2022-12-07T06:24:22.000Z,3.5
2022-12-07T06:25:38.000Z,3.5
2022-12-07T06:26:53.000Z,3.5
2022-12-07T06:28:09.000Z,3.4
2022-12-07T06:30:42.000Z,3.4
2022-12-07T06:31:58.000Z,3.4
2022-12-07T06:33:14.000Z,3.4
2022-12-07T06:34:31.000Z,3.4
2022-12-07T06:35:47.000Z,3.3
2022-12-07T06:37:03.000Z,3.3
2022-12-07T06:38:19.000Z,3.3
2022-12-07T06:39:35.000Z,3.3
2022-12-07T06:40:52.000Z,3.3
2022-12-07T06:42:08.000Z,3.2
2022-12-07T06:43:23.000Z,3.2
2022-12-07T06:44:39.000Z,3.2
2022-12-07T06:45:56.000Z,3.2
2022-12-07T06:47:12.000Z,3.2
2022-12-07T06:48:28.000Z,3.2
2022-12-07T06:49:44.000Z,3.2
2022-12-07T06:51:01.000Z,3.2
2022-12-07T06:52:17.000Z,3.2
2022-12-07T06:53:33.000Z,3.1
2022-12-07T06:54:49.000Z,3.1
2022-12-07T06:56:06.000Z,3.1
2022-12-07T06:57:22.000Z,3.1
2022-12-07T06:58:38.000Z,3.1
2022-12-07T06:59:53.000Z,3.1
2022-12-07T07:01:09.000Z,3.1
2022-12-07T07:02:26.000Z,3.1
2022-12-07T07:03:42.000Z,3.1
2022-12-07T07:04:57.000Z,3.1
2022-12-07T07:06:13.000Z,3.1
2022-12-07T07:07:30.000Z,3.1
2022-12-07T07:08:46.000Z,3.1
2022-12-07T07:10:02.000Z,3.1
2022-12-07T07:11:18.000Z,3.1
2022-12-07T07:12:35.000Z,3.1
2022-12-07T07:13:51.000Z,3.1
2022-12-07T07:15:07.000Z,3.1
2022-12-07T07:16:23.000Z,3.1
2022-12-07T07:17:40.000Z,3.2
2022-12-07T07:18:56.000Z,3.2
2022-12-07T07:20:12.000Z,3.2
2022-12-07T07:22:44.000Z,3.3
2022-12-07T07:24:00.000Z,3.3
2022-12-07T07:25:16.000Z,3.3
2022-12-07T07:26:32.000Z,3.4
2022-12-07T07:27:48.000Z,3.4
2022-12-07T07:29:05.000Z,3.4
2022-12-07T07:30:21.000Z,3.4
2022-12-07T07:32:53.000Z,3.4
2022-12-07T07:34:10.000Z,3.4
2022-12-07T07:35:26.000Z,3.5
2022-12-07T07:36:42.000Z,3.5
2022-12-07T07:37:57.000Z,3.5
2022-12-07T07:39:14.000Z,3.5
2022-12-07T07:40:30.000Z,3.5
2022-12-07T07:41:46.000Z,3.5
2022-12-07T07:43:02.000Z,3.5
2022-12-07T07:44:19.000Z,3.5
2022-12-07T07:45:35.000Z,3.5
2022-12-07T07:46:51.000Z,3.5
2022-12-07T07:48:07.000Z,3.5
2022-12-07T07:49:23.000Z,3.5
2022-12-07T07:50:40.000Z,3.5
2022-12-07T07:51:56.000Z,3.5
2022-12-07T07:53:12.000Z,3.5
2022-12-07T07:54:27.000Z,3.5
2022-12-07T07:55:44.000Z,3.5
2022-12-07T07:57:00.000Z,3.5
2022-12-07T07:58:16.000Z,3.5
2022-12-07T07:59:32.000Z,3.4
2022-12-07T08:00:49.000Z,3.4
2022-12-07T08:02:05.000Z,3.4
2022-12-07T08:03:21.000Z,3.4
2022-12-07T08:04:37.000Z,3.4
2022-12-07T08:05:54.000Z,3.3
2022-12-07T08:07:10.000Z,3.3
2022-12-07T08:08:26.000Z,3.3
2022-12-07T08:09:42.000Z,3.3
2022-12-07T08:10:57.000Z,3.3
2022-12-07T08:12:14.000Z,3.3
2022-12-07T08:13:30.000Z,3.2
2022-12-07T08:14:46.000Z,3.2
2022-12-07T08:16:02.000Z,3.2
2022-12-07T08:17:19.000Z,3.2
2022-12-07T08:18:35.000Z,3.2
2022-12-07T08:19:51.000Z,3.2
2022-12-07T08:21:07.000Z,3.2
2022-12-07T08:23:40.000Z,3.2
2022-12-07T08:24:56.000Z,3.2
2022-12-07T08:26:12.000Z,3.2
2022-12-07T08:27:28.000Z,3.2
2022-12-07T08:28:44.000Z,3.2
2022-12-07T08:30:00.000Z,3.2
2022-12-07T08:31:16.000Z,3.2
2022-12-07T08:32:32.000Z,3.2
2022-12-07T08:33:49.000Z,3.3
2022-12-07T08:35:05.000Z,3.3
2022-12-07T08:36:21.000Z,3.3
2022-12-07T08:37:37.000Z,3.3
2022-12-07T08:38:54.000Z,3.3
2022-12-07T08:40:10.000Z,3.4
2022-12-07T08:41:26.000Z,3.4
2022-12-07T08:42:42.000Z,3.5
2022-12-07T08:43:58.000Z,3.5
2022-12-07T08:45:14.000Z,3.6
2022-12-07T08:46:30.000Z,3.6
2022-12-07T08:47:46.000Z,3.7
2022-12-07T08:49:03.000Z,3.7
2022-12-07T08:50:19.000Z,3.8
2022-12-07T08:51:35.000Z,3.8
2022-12-07T08:52:51.000Z,3.9
2022-12-07T08:54:07.000Z,3.9
2022-12-07T08:55:24.000Z,4
2022-12-07T08:56:40.000Z,4.1
2022-12-07T08:57:56.000Z,4.1
2022-12-07T08:59:12.000Z,4.2
2022-12-07T09:00:28.000Z,4.2
2022-12-07T09:01:44.000Z,4.2
2022-12-07T09:03:00.000Z,4.3
2022-12-07T09:04:16.000Z,4.3
2022-12-07T09:05:33.000Z,4.3
2022-12-07T09:06:49.000Z,4.4
2022-12-07T09:08:05.000Z,4.4
2022-12-07T09:09:21.000Z,4.4
2022-12-07T09:10:38.000Z,4.4
2022-12-07T09:11:54.000Z,4.4
2022-12-07T09:13:10.000Z,4.4
2022-12-07T09:14:26.000Z,4.5
2022-12-07T09:15:42.000Z,4.5
2022-12-07T09:16:58.000Z,4.6
2022-12-07T09:18:14.000Z,4.6
2022-12-07T09:19:30.000Z,4.6
2022-12-07T09:20:46.000Z,4.7
2022-12-07T09:22:03.000Z,4.7
2022-12-07T09:23:19.000Z,4.7
2022-12-07T09:24:35.000Z,4.7
2022-12-07T09:25:51.000Z,4.7
2022-12-07T09:27:08.000Z,4.7
2022-12-07T09:28:24.000Z,4.7
2022-12-07T09:29:40.000Z,4.8
2022-12-07T09:30:56.000Z,4.8
2022-12-07T09:32:13.000Z,4.8
2022-12-07T09:33:28.000Z,4.7
2022-12-07T09:34:44.000Z,4.7
2022-12-07T09:36:00.000Z,4.7
2022-12-07T09:37:16.000Z,4.7
2022-12-07T09:38:33.000Z,4.7
2022-12-07T09:39:49.000Z,4.7
2022-12-07T09:41:05.000Z,4.7
2022-12-07T09:42:21.000Z,4.7
2022-12-07T09:43:38.000Z,4.7
2022-12-07T09:44:54.000Z,4.7
2022-12-07T09:46:10.000Z,4.7
2022-12-07T09:47:26.000Z,4.7
2022-12-07T09:48:43.000Z,4.7
2022-12-07T09:51:14.000Z,4.8
2022-12-07T09:52:30.000Z,4.8
2022-12-07T09:53:47.000Z,4.8
2022-12-07T09:56:19.000Z,4.9
2022-12-07T09:57:35.000Z,5
2022-12-07T09:58:51.000Z,5.1
2022-12-07T10:00:08.000Z,5.1
2022-12-07T10:01:24.000Z,5.2
2022-12-07T10:02:40.000Z,5.3
2022-12-07T10:03:56.000Z,5.3
2022-12-07T10:05:13.000Z,5.3
2022-12-07T10:06:28.000Z,5.3
2022-12-07T10:07:44.000Z,5.3
2022-12-07T10:09:00.000Z,5.4
2022-12-07T10:10:17.000Z,5.5
2022-12-07T10:11:33.000Z,5.5
2022-12-07T10:12:49.000Z,5.5
2022-12-07T10:14:05.000Z,5.4
2022-12-07T10:15:22.000Z,5.5
2022-12-07T10:16:38.000Z,5.5
2022-12-07T10:17:54.000Z,5.5
2022-12-07T10:19:10.000Z,5.4
2022-12-07T10:20:26.000Z,5.4
2022-12-07T10:21:43.000Z,5.4
2022-12-07T10:22:58.000Z,5.5
2022-12-07T10:24:14.000Z,5.5
2022-12-07T10:25:30.000Z,5.5
2022-12-07T10:26:47.000Z,5.5
2022-12-07T10:28:03.000Z,5.6
2022-12-07T10:29:19.000Z,5.6
2022-12-07T10:30:35.000Z,5.6
2022-12-07T10:31:52.000Z,5.6
2022-12-07T10:33:08.000Z,5.6
2022-12-07T10:34:24.000Z,5.6
2022-12-07T10:35:40.000Z,5.5
2022-12-07T10:36:57.000Z,5.5
2022-12-07T10:38:13.000Z,5.5
2022-12-07T10:39:28.000Z,5.5
2022-12-07T10:40:44.000Z,5.5
2022-12-07T10:42:00.000Z,5.5
2022-12-07T10:43:17.000Z,5.4
2022-12-07T10:44:33.000Z,5.4
2022-12-07T10:45:49.000Z,5.4
2022-12-07T10:47:05.000Z,5.4
2022-12-07T10:48:22.000Z,5.4
2022-12-07T10:49:38.000Z,5.5
2022-12-07T10:50:54.000Z,5.5
2022-12-07T10:52:10.000Z,5.5
2022-12-07T10:53:27.000Z,5.5
2022-12-07T10:54:43.000Z,5.5
2022-12-07T10:55:59.000Z,5.5
2022-12-07T10:57:14.000Z,5.5
2022-12-07T10:58:31.000Z,5.5
2022-12-07T10:59:47.000Z,5.5
2022-12-07T11:01:03.000Z,5.6
2022-12-07T11:02:19.000Z,5.6
2022-12-07T11:03:35.000Z,5.7
2022-12-07T11:04:52.000Z,5.7
2022-12-07T11:06:08.000Z,5.7
2022-12-07T11:07:24.000Z,5.7
2022-12-07T11:08:40.000Z,5.8
2022-12-07T11:09:57.000Z,5.8
2022-12-07T11:11:13.000Z,5.8
2022-12-07T11:12:29.000Z,5.9
2022-12-07T11:13:44.000Z,5.9
2022-12-07T11:15:01.000Z,6
2022-12-07T11:16:17.000Z,6
2022-12-07T11:17:33.000Z,6
2022-12-07T11:18:49.000Z,5.9
2022-12-07T11:20:05.000Z,5.9
2022-12-07T11:21:21.000Z,6
2022-12-07T11:22:37.000Z,6
2022-12-07T11:23:53.000Z,6.1
2022-12-07T11:25:09.000Z,6.1
2022-12-07T11:26:26.000Z,6.2
2022-12-07T11:27:42.000Z,6.1
2022-12-07T11:28:58.000Z,6.1
2022-12-07T11:30:14.000Z,6
2022-12-07T11:31:31.000Z,6
2022-12-07T11:34:03.000Z,6
2022-12-07T11:35:19.000Z,6
2022-12-07T11:36:35.000Z,6
2022-12-07T11:37:51.000Z,6
2022-12-07T11:39:07.000Z,6
2022-12-07T11:40:23.000Z,6
2022-12-07T11:41:40.000Z,6
2022-12-07T11:42:56.000Z,6
2022-12-07T11:44:12.000Z,6
2022-12-07T11:46:44.000Z,6
2022-12-07T11:48:01.000Z,6.1
2022-12-07T11:49:17.000Z,6.1
2022-12-07T11:50:33.000Z,6.2
2022-12-07T11:51:49.000Z,6.2
2022-12-07T11:53:05.000Z,6.2
2022-12-07T11:54:21.000Z,6.3
2022-12-07T11:55:37.000Z,6.4
2022-12-07T11:56:53.000Z,6.4
2022-12-07T11:59:26.000Z,6.5
2022-12-07T12:00:41.000Z,6.5
2022-12-07T12:01:56.000Z,6.4
2022-12-07T12:03:13.000Z,6.4
2022-12-07T12:04:29.000Z,6.4
2022-12-07T12:05:45.000Z,6.3
2022-12-07T12:07:01.000Z,6.3
2022-12-07T12:08:18.000Z,6.3
2022-12-07T12:09:34.000Z,6.3
2022-12-07T12:10:50.000Z,6.3
2022-12-07T12:12:06.000Z,6.3
2022-12-07T12:13:22.000Z,6.3
2022-12-07T12:14:38.000Z,6.3
2022-12-07T12:15:53.000Z,6.4
2022-12-07T12:17:09.000Z,6.4
2022-12-07T12:18:25.000Z,6.4
2022-12-07T12:19:42.000Z,6.4
2022-12-07T12:20:58.000Z,6.3
2022-12-07T12:22:14.000Z,6.3
2022-12-07T12:24:47.000Z,6.2
2022-12-07T12:26:03.000Z,6.2
2022-12-07T12:27:19.000Z,6.2
2022-12-07T12:28:35.000Z,6.1
2022-12-07T12:29:52.000Z,6.2
2022-12-07T12:31:08.000Z,6.2
2022-12-07T12:32:24.000Z,6.3
2022-12-07T12:33:39.000Z,6.3
2022-12-07T12:34:55.000Z,6.4
2022-12-07T12:37:28.000Z,6.5
2022-12-07T12:38:43.000Z,6.4
2022-12-07T12:39:58.000Z,6.4
2022-12-07T12:41:15.000Z,6.4
2022-12-07T12:42:31.000Z,6.4
2022-12-07T12:43:47.000Z,6.4
2022-12-07T12:45:03.000Z,6.3
2022-12-07T12:47:36.000Z,6.3
2022-12-07T12:48:52.000Z,6.3
2022-12-07T12:50:08.000Z,6.2
2022-12-07T12:51:25.000Z,6.2
2022-12-07T12:52:41.000Z,6.1
2022-12-07T12:53:57.000Z,6.1
2022-12-07T12:55:13.000Z,6.1
2022-12-07T12:56:29.000Z,6.1
2022-12-07T12:57:45.000Z,6.1
2022-12-07T12:59:01.000Z,6
2022-12-07T13:00:17.000Z,6
2022-12-07T13:01:33.000Z,6
2022-12-07T13:02:50.000Z,6
2022-12-07T13:04:06.000Z,6
2022-12-07T13:05:22.000Z,6
2022-12-07T13:06:37.000Z,6
2022-12-07T13:07:53.000Z,5.9
2022-12-07T13:09:09.000Z,6
2022-12-07T13:10:25.000Z,6
2022-12-07T13:11:41.000Z,6
2022-12-07T13:12:58.000Z,6
2022-12-07T13:14:14.000Z,6.1
2022-12-07T13:15:30.000Z,6.1
2022-12-07T13:16:46.000Z,6.1
2022-12-07T13:18:03.000Z,6.2
2022-12-07T13:19:19.000Z,6.3
2022-12-07T13:20:35.000Z,6.3
2022-12-07T13:21:51.000Z,6.3
2022-12-07T13:23:07.000Z,6.3
2022-12-07T13:24:23.000Z,6.3
2022-12-07T13:28:11.000Z,6.2
2022-12-07T13:29:27.000Z,6.2
2022-12-07T13:30:42.000Z,6.2
2022-12-07T13:31:58.000Z,6.2
2022-12-07T13:33:14.000Z,6.3
2022-12-07T13:34:31.000Z,6.3
2022-12-07T13:35:47.000Z,6.4
2022-12-07T13:37:03.000Z,6.3
2022-12-07T13:38:19.000Z,6.3
2022-12-07T13:39:36.000Z,6.4
2022-12-07T13:40:52.000Z,6.3
2022-12-07T13:42:08.000Z,6.3
2022-12-07T13:43:23.000Z,6.3
2022-12-07T13:44:39.000Z,6.3
2022-12-07T13:45:55.000Z,6.3
2022-12-07T13:47:11.000Z,6.2
2022-12-07T13:48:27.000Z,6.2
2022-12-07T13:49:44.000Z,6.2
2022-12-07T13:51:00.000Z,6.2
2022-12-07T13:53:32.000Z,6.2
2022-12-07T13:54:48.000Z,6.2
2022-12-07T13:56:05.000Z,6.2
2022-12-07T13:57:21.000Z,6.2
2022-12-07T13:58:37.000Z,6.2
2022-12-07T13:59:53.000Z,6.1
2022-12-07T14:02:25.000Z,6.2
2022-12-07T14:03:40.000Z,6.2
2022-12-07T14:04:55.000Z,6.1
2022-12-07T14:06:12.000Z,6.1
2022-12-07T14:07:28.000Z,6.1
2022-12-07T14:08:44.000Z,6.1
2022-12-07T14:10:00.000Z,6.1
2022-12-07T14:11:17.000Z,6.1
2022-12-07T14:12:33.000Z,6.1
2022-12-07T14:13:49.000Z,6.1
2022-12-07T14:15:05.000Z,6.1
2022-12-07T14:16:21.000Z,6
2022-12-07T14:17:37.000Z,6
2022-12-07T14:18:52.000Z,6
2022-12-07T14:20:08.000Z,6
2022-12-07T14:21:24.000Z,6
2022-12-07T14:22:41.000Z,6
2022-12-07T14:23:57.000Z,6
2022-12-07T14:25:13.000Z,6
2022-12-07T14:26:29.000Z,6
2022-12-07T14:27:46.000Z,6
2022-12-07T14:29:02.000Z,6
2022-12-07T14:31:34.000Z,6
2022-12-07T14:32:51.000Z,5.9
2022-12-07T14:34:07.000Z,5.9
2022-12-07T14:35:22.000Z,5.9
2022-12-07T14:36:38.000Z,5.9
2022-12-07T14:37:55.000Z,6
2022-12-07T14:39:11.000Z,6
2022-12-07T14:40:27.000Z,5.9
2022-12-07T14:41:43.000Z,5.8
2022-12-07T14:42:59.000Z,5.7
2022-12-07T14:44:16.000Z,5.7
2022-12-07T14:45:32.000Z,5.7
2022-12-07T14:46:48.000Z,5.7
2022-12-07T14:48:04.000Z,5.6
2022-12-07T14:49:21.000Z,5.6
2022-12-07T14:50:37.000Z,5.6
2022-12-07T14:51:52.000Z,5.5
2022-12-07T14:53:08.000Z,5.5
2022-12-07T14:54:25.000Z,5.5
2022-12-07T14:55:41.000Z,5.5
2022-12-07T14:56:57.000Z,5.4
2022-12-07T14:58:13.000Z,5.4
2022-12-07T14:59:30.000Z,5.4
2022-12-07T15:00:46.000Z,5.4
2022-12-07T15:03:18.000Z,5.3
2022-12-07T15:04:34.000Z,5.3
2022-12-07T15:05:51.000Z,5.2
2022-12-07T15:07:07.000Z,5.2
2022-12-07T15:08:22.000Z,5.2
2022-12-07T15:09:38.000Z,5.2
2022-12-07T15:10:55.000Z,5.2
2022-12-07T15:12:11.000Z,5.2
2022-12-07T15:13:27.000Z,5.1
2022-12-07T15:14:43.000Z,5.1
2022-12-07T15:16:00.000Z,5.1
2022-12-07T15:17:16.000Z,5.2
2022-12-07T15:18:32.000Z,5.2
2022-12-07T15:19:48.000Z,5.2
2022-12-07T15:21:05.000Z,5.2
2022-12-07T15:22:21.000Z,5.1
2022-12-07T15:23:37.000Z,5.1
2022-12-07T15:24:53.000Z,5.1
2022-12-07T15:26:08.000Z,5.1
2022-12-07T15:27:25.000Z,5.1
2022-12-07T15:28:41.000Z,5.1
2022-12-07T15:29:57.000Z,5.1
2022-12-07T15:31:13.000Z,5.1
2022-12-07T15:32:30.000Z,5.1
2022-12-07T15:33:46.000Z,5
2022-12-07T15:35:01.000Z,5
2022-12-07T15:36:17.000Z,5
2022-12-07T15:37:33.000Z,5
2022-12-07T15:38:48.000Z,5
2022-12-07T15:40:03.000Z,5
2022-12-07T15:41:18.000Z,5
2022-12-07T15:42:35.000Z,5
2022-12-07T15:43:51.000Z,5
2022-12-07T15:45:07.000Z,5
2022-12-07T15:46:23.000Z,5
2022-12-07T15:47:40.000Z,5
2022-12-07T15:48:56.000Z,5
2022-12-07T15:50:12.000Z,5.1
2022-12-07T15:51:28.000Z,5.1
2022-12-07T15:52:44.000Z,5.2
2022-12-07T15:54:01.000Z,5.2
2022-12-07T15:55:17.000Z,5.2
2022-12-07T15:56:33.000Z,5.2
2022-12-07T15:57:48.000Z,5.2
2022-12-07T15:59:05.000Z,5.2
2022-12-07T16:00:21.000Z,5.2
2022-12-07T16:01:37.000Z,5.2
2022-12-07T16:02:53.000Z,5.2
2022-12-07T16:04:10.000Z,5.2
2022-12-07T16:05:26.000Z,5.2
2022-12-07T16:06:41.000Z,5.2
2022-12-07T16:07:56.000Z,5.2
2022-12-07T16:09:12.000Z,5.2
2022-12-07T16:10:27.000Z,5.2
2022-12-07T16:11:43.000Z,5.2
2022-12-07T16:12:59.000Z,5.2
2022-12-07T16:14:16.000Z,5.2
2022-12-07T16:16:48.000Z,5.1
2022-12-07T16:18:04.000Z,5.1
2022-12-07T16:19:21.000Z,5
2022-12-07T16:20:37.000Z,5.1
2022-12-07T16:21:53.000Z,5
2022-12-07T16:24:25.000Z,5
2022-12-07T16:26:58.000Z,4.9
2022-12-07T16:28:13.000Z,4.9
2022-12-07T16:29:29.000Z,4.9
2022-12-07T16:32:02.000Z,4.8
2022-12-07T16:33:17.000Z,4.7
2022-12-07T16:34:33.000Z,4.7
2022-12-07T16:35:50.000Z,4.7
2022-12-07T16:37:06.000Z,4.7
2022-12-07T16:38:22.000Z,4.7
2022-12-07T16:39:38.000Z,4.7
2022-12-07T16:40:55.000Z,4.6
2022-12-07T16:42:11.000Z,4.7
2022-12-07T16:43:27.000Z,4.7
2022-12-07T16:44:43.000Z,4.6
2022-12-07T16:45:59.000Z,4.6
2022-12-07T16:47:16.000Z,4.6
2022-12-07T16:48:32.000Z,4.7
2022-12-07T16:49:47.000Z,4.7
2022-12-07T16:51:03.000Z,4.7
2022-12-07T16:52:20.000Z,4.7
2022-12-07T16:53:36.000Z,4.6
2022-12-07T16:54:52.000Z,4.6
2022-12-07T16:56:07.000Z,4.6
2022-12-07T16:57:23.000Z,4.6
2022-12-07T16:58:38.000Z,4.8
2022-12-07T16:59:53.000Z,4.8
2022-12-07T17:01:09.000Z,4.8
2022-12-07T17:02:26.000Z,4.8
2022-12-07T17:03:42.000Z,4.9
2022-12-07T17:04:58.000Z,4.8
2022-12-07T17:06:14.000Z,4.7
2022-12-07T17:07:31.000Z,4.8
2022-12-07T17:08:47.000Z,4.8
2022-12-07T17:10:03.000Z,4.9
2022-12-07T17:11:19.000Z,4.8
2022-12-07T17:12:36.000Z,4.8
2022-12-07T17:13:52.000Z,4.8
2022-12-07T17:15:08.000Z,4.7
2022-12-07T17:16:24.000Z,4.7
2022-12-07T17:17:39.000Z,4.8
2022-12-07T17:18:56.000Z,4.9
2022-12-07T17:20:12.000Z,4.9
2022-12-07T17:21:28.000Z,4.9
2022-12-07T17:22:44.000Z,4.8
2022-12-07T17:24:01.000Z,4.8
2022-12-07T17:25:17.000Z,4.8
2022-12-07T17:26:32.000Z,4.7
2022-12-07T17:27:47.000Z,4.7
2022-12-07T17:29:04.000Z,4.7
2022-12-07T17:30:20.000Z,4.7
2022-12-07T17:31:35.000Z,4.7
2022-12-07T17:32:50.000Z,4.7
2022-12-07T17:34:07.000Z,4.8
2022-12-07T17:35:23.000Z,4.8
2022-12-07T17:36:39.000Z,4.8
2022-12-07T17:37:55.000Z,4.8
2022-12-07T17:39:12.000Z,4.8
2022-12-07T17:40:28.000Z,4.8
2022-12-07T17:41:44.000Z,4.7
2022-12-07T17:43:00.000Z,4.8
2022-12-07T17:44:16.000Z,4.9
2022-12-07T17:45:33.000Z,4.9
2022-12-07T17:46:49.000Z,4.9
2022-12-07T17:48:05.000Z,4.9
2022-12-07T17:49:20.000Z,5
2022-12-07T17:50:37.000Z,5
2022-12-07T17:51:53.000Z,4.9
2022-12-07T17:53:09.000Z,5
2022-12-07T17:54:25.000Z,4.9
2022-12-07T17:55:42.000Z,4.9
2022-12-07T17:56:58.000Z,4.8
2022-12-07T17:58:14.000Z,4.8
2022-12-07T17:59:30.000Z,4.8
2022-12-07T18:00:47.000Z,4.8
2022-12-07T18:02:03.000Z,4.8
2022-12-07T18:03:19.000Z,4.9
2022-12-07T18:04:35.000Z,4.9
2022-12-07T18:05:50.000Z,4.9
2022-12-07T18:07:07.000Z,4.9